Don's Testing Zone


Current Conditions
weather data
source:

National Weather Service
Clear Searcy, AR
Clear, 37°F
Monday, October 22, 2018 11:56 PM CDT
Temperature: 37°F/3°C
Humidity: 100%
Barometer: 30.28in/1026.5mb Barometer Steady
Wind: CALM at 0mph/0kmh
View other cities:
Searcy | Little Rock | Hot Springs | Russellville | More...
Astronomical Conditions (Clear Sky Clock)
Searcy Clear Sky Clock
Find more weather in Little Rock, AR
    

Radar Images

NWS
    Wx Underground

KARK
   

Solar-Terrestrial Data

NWS METAR weather data

ADDS - METARS form results





Aviation Digital Data Service (ADDS) Output produced by METARs form (0553 UTC 22 October 2018) found at http://www.aviationweather.gov/metar/data/ 

KSRC 220456Z AUTO 00000KT 10SM CLR 03/03 A3028 RMK AO2 SLP265 T00330033 401500033

KSRC 220356Z AUTO 00000KT 10SM CLR 04/04 A3028 RMK AO2 SLP266 T00390039

KSRC 220256Z AUTO 29003KT 10SM CLR 04/04 A3028 RMK AO2 SLP265 T00440044 57003

KSRC 220156Z AUTO 00000KT 10SM CLR 05/05 A3029 RMK AO2 SLP266 T00500050

KSRC 220056Z AUTO 00000KT 10SM CLR 06/06 A3029 RMK AO2 SLP267 T00610056

KSRC 212356Z AUTO 00000KT 10SM CLR 08/04 A3029 RMK AO2 SLP269 T00830044 10150 20083 56014

KSRC 212256Z AUTO 09004KT 10SM CLR 13/02 A3029 RMK AO2 SLP270 T01280017

KSRC 212156Z AUTO 05006KT 10SM CLR 14/01 A3031 RMK AO2 SLP274 T01440011

KSRC 212056Z AUTO 00000KT 10SM CLR 14/M01 A3033 RMK AO2 SLP282 T01391006 56019

KSRC 211956Z AUTO VRB03KT 10SM CLR 14/M01 A3034 RMK AO2 SLP284 T01391006

KSRC 211856Z AUTO 00000KT 10SM CLR 13/M01 A3036 RMK AO2 SLP293 T01281011

KSRC 211756Z AUTO 05005KT 10SM CLR 12/M01 A3039 RMK AO2 SLP302 T01221006 10122 20039 58022

KSRC 211656Z AUTO 09006KT 10SM CLR 11/M01 A3042 RMK AO2 SLP311 T01111011

KSRC 211556Z AUTO 09008KT 10SM CLR 09/M02 A3044 RMK AO2 SLP318 T00941017

KSRC 211456Z AUTO 05010KT 10SM CLR 08/M02 A3045 RMK AO2 SLP324 T00781022 50008

KSRC 211356Z AUTO 04008KT 10SM CLR 07/M02 A3045 RMK AO2 SLP324 T00671022

KSRC 211256Z AUTO 02006KT 10SM CLR 04/M01 A3044 RMK AO2 SLP320 T00441006

KSRC 211156Z AUTO 03008KT 10SM CLR 05/M01 A3043 RMK AO2 SLP315 T00501011 10100 20050 53020

KSRC 211056Z AUTO 03010KT 10SM CLR 06/M01 A3041 RMK AO2 SLP308 T00561006

KSRC 210956Z AUTO 03008KT 10SM CLR 06/02 A3039 RMK AO2 SLP302 T00610017

KSRC 210856Z AUTO 04009KT 10SM CLR 08/02 A3037 RMK AO2 SLP294 T00780022 51019

KSRC 210756Z AUTO 03011KT 10SM CLR 09/02 A3035 RMK AO2 SLP288 T00890022

KSRC 210656Z AUTO 35007KT 10SM CLR 09/03 A3034 RMK AO2 SLP283 T00890033

KSRC 210556Z AUTO 35006KT 10SM CLR 10/04 A3032 RMK AO2 SLP275 T01000039 10133 20094 51016